createdAt,value
2023-05-12T00:01:22.610Z,702.8
2023-05-12T00:03:06.342Z,703.6
2023-05-12T00:04:50.008Z,703.2
2023-05-12T00:06:33.725Z,701.4
2023-05-12T00:08:17.424Z,702.6
2023-05-12T00:10:01.119Z,704.9
2023-05-12T00:11:44.819Z,707.9
2023-05-12T00:13:28.523Z,706.5
2023-05-12T00:15:12.245Z,705.2
2023-05-12T00:16:55.924Z,702.2
2023-05-12T00:18:39.627Z,701.9
2023-05-12T00:20:23.328Z,702.1
2023-05-12T00:22:07.032Z,701.9
2023-05-12T00:23:50.734Z,700.4
2023-05-12T00:25:34.442Z,700.9
2023-05-12T00:27:18.144Z,701.1
2023-05-12T00:29:01.840Z,703.9
2023-05-12T00:30:45.560Z,706.5
2023-05-12T00:32:29.239Z,705.8
2023-05-12T00:34:12.938Z,706.7
2023-05-12T00:35:56.646Z,706.4
2023-05-12T00:37:40.340Z,706.5
2023-05-12T00:39:24.056Z,706.1
2023-05-12T00:41:07.746Z,709.1
2023-05-12T00:42:51.457Z,709.2
2023-05-12T00:44:35.163Z,706.5
2023-05-12T00:46:18.850Z,705.5
2023-05-12T00:48:02.552Z,704.8
2023-05-12T00:49:46.249Z,706.8
2023-05-12T00:51:29.957Z,708.5
2023-05-12T00:53:13.660Z,709.2
2023-05-12T00:54:57.368Z,706.8
2023-05-12T00:56:41.067Z,708.9
2023-05-12T00:58:24.766Z,712.2
2023-05-12T01:00:08.457Z,711.6
2023-05-12T01:01:52.162Z,711.2
2023-05-12T01:03:35.862Z,711.6
2023-05-12T01:05:19.577Z,713.6
2023-05-12T01:07:03.278Z,712.7
2023-05-12T01:08:46.975Z,712.3
2023-05-12T01:10:30.691Z,713.7
2023-05-12T01:12:14.376Z,711.7
2023-05-12T01:15:41.785Z,715.6
2023-05-12T01:17:25.493Z,718.2
2023-05-12T01:19:09.201Z,714.5
2023-05-12T01:20:52.886Z,712.4
2023-05-12T01:22:36.591Z,713
2023-05-12T01:24:20.292Z,716.3
2023-05-12T01:26:03.991Z,718.1
2023-05-12T01:27:47.715Z,721.3
2023-05-12T01:29:31.398Z,720.8
2023-05-12T01:31:15.100Z,721.2
2023-05-12T01:32:58.805Z,718.8
2023-05-12T01:34:42.542Z,717.3
2023-05-12T01:36:26.205Z,720.5
2023-05-12T01:38:09.913Z,723
2023-05-12T01:39:53.598Z,724.4
2023-05-12T01:41:37.312Z,725.4
2023-05-12T01:43:21.012Z,725.2
2023-05-12T01:45:04.701Z,727
2023-05-12T01:46:48.406Z,726.4
2023-05-12T01:48:32.107Z,728.6
2023-05-12T01:50:15.835Z,729.5
2023-05-12T01:51:59.509Z,731.8
2023-05-12T01:53:43.200Z,733.9
2023-05-12T01:55:26.916Z,733.5
2023-05-12T01:57:10.617Z,732
2023-05-12T01:58:54.369Z,729.6
2023-05-12T02:00:38.023Z,728.8
2023-05-12T02:02:21.710Z,732.9
2023-05-12T02:04:05.455Z,732.4
2023-05-12T02:05:49.126Z,728.3
2023-05-12T02:07:32.822Z,728.9
2023-05-12T02:09:16.519Z,731.8
2023-05-12T02:11:00.229Z,731.9
2023-05-12T02:12:43.920Z,730
2023-05-12T02:14:27.621Z,728.4
2023-05-12T02:16:11.331Z,732.4
2023-05-12T02:17:55.048Z,731.2
2023-05-12T02:19:38.731Z,727.4
2023-05-12T02:21:22.438Z,727.4
2023-05-12T02:23:06.131Z,726.8
2023-05-12T02:24:49.841Z,729.4
2023-05-12T02:26:33.535Z,728.7
2023-05-12T02:28:17.239Z,731.5
2023-05-12T02:30:00.938Z,737.7
2023-05-12T02:31:44.646Z,734.4
2023-05-12T02:33:28.336Z,737.9
2023-05-12T02:35:12.040Z,738.6
2023-05-12T02:36:55.742Z,739.5
2023-05-12T02:38:39.448Z,740.1
2023-05-12T02:40:23.146Z,741.5
2023-05-12T02:42:06.848Z,743.2
2023-05-12T02:43:50.554Z,746.3
2023-05-12T02:45:34.252Z,746.8
2023-05-12T02:47:17.962Z,746.5
2023-05-12T02:49:01.683Z,745.7
2023-05-12T02:50:45.354Z,745.5
2023-05-12T02:52:29.063Z,746.1
2023-05-12T02:54:12.765Z,747.8
2023-05-12T02:55:56.473Z,755.8
2023-05-12T02:57:40.168Z,755.2
2023-05-12T02:59:23.870Z,758
2023-05-12T03:01:07.598Z,760.8
2023-05-12T03:02:51.272Z,762.4
2023-05-12T03:04:35.009Z,761.8
2023-05-12T03:06:18.678Z,760.2
2023-05-12T03:08:02.380Z,759
2023-05-12T03:09:46.083Z,759
2023-05-12T03:11:29.767Z,758.6
2023-05-12T03:13:13.501Z,759.3
2023-05-12T03:14:57.192Z,754.6
2023-05-12T03:16:40.880Z,755.3
2023-05-12T03:18:24.591Z,759.2
2023-05-12T03:20:08.289Z,763.7
2023-05-12T03:21:51.986Z,764.3
2023-05-12T03:23:35.689Z,768.9
2023-05-12T03:25:19.374Z,772.7
2023-05-12T03:27:03.085Z,773.1
2023-05-12T03:28:46.789Z,773.2
2023-05-12T03:30:30.486Z,769.2
2023-05-12T03:32:14.193Z,769
2023-05-12T03:33:57.898Z,770.5
2023-05-12T03:35:41.638Z,767.6
2023-05-12T03:37:25.298Z,765.6
2023-05-12T03:39:08.991Z,767.9
2023-05-12T03:40:52.705Z,772.2
2023-05-12T03:42:36.412Z,774.6
2023-05-12T03:44:20.105Z,776.4
2023-05-12T03:46:03.802Z,777.3
2023-05-12T03:47:47.509Z,774.9
2023-05-12T03:49:31.208Z,776.3
2023-05-12T03:51:14.911Z,774
2023-05-12T03:52:58.610Z,772.8
2023-05-12T03:54:42.333Z,770.9
2023-05-12T03:58:09.722Z,768.9
2023-05-12T03:59:53.422Z,773.6
2023-05-12T04:01:37.126Z,771.4
2023-05-12T04:03:20.825Z,772.3
2023-05-12T04:05:04.530Z,772.3
2023-05-12T04:06:48.224Z,771.7
2023-05-12T04:08:31.934Z,773.4
2023-05-12T04:10:15.636Z,775.4
2023-05-12T04:11:59.343Z,778.4
2023-05-12T04:13:43.031Z,778.8
2023-05-12T04:15:26.737Z,778.8
2023-05-12T04:17:10.444Z,776.4
2023-05-12T04:18:54.147Z,777
2023-05-12T04:20:37.841Z,776.8
2023-05-12T04:22:21.561Z,776.4
2023-05-12T04:24:05.263Z,776.9
2023-05-12T04:27:32.653Z,778.5
2023-05-12T04:29:16.380Z,778.9
2023-05-12T04:31:00.068Z,777.5
2023-05-12T04:32:43.757Z,780.6
2023-05-12T04:34:27.543Z,782.1
2023-05-12T04:36:11.176Z,780.3
2023-05-12T04:37:54.883Z,779.5
2023-05-12T04:39:38.665Z,781.9
2023-05-12T04:43:05.982Z,784.9
2023-05-12T04:44:49.730Z,783.6
2023-05-12T04:46:33.383Z,787.3
2023-05-12T04:48:17.078Z,790
2023-05-12T04:50:00.776Z,931.2
2023-05-12T04:51:44.502Z,1158.9
2023-05-12T04:53:28.214Z,1188.5
2023-05-12T04:55:11.886Z,1180.1
2023-05-12T04:56:55.592Z,1175.7
2023-05-12T04:58:39.300Z,1160.1
2023-05-12T05:00:22.995Z,1135.9
2023-05-12T05:02:06.755Z,1116.7
2023-05-12T05:05:34.107Z,1102.9
2023-05-12T05:09:01.537Z,1079.6
2023-05-12T05:10:45.249Z,1067.5
2023-05-12T05:12:28.935Z,1082.5
2023-05-12T05:14:19.631Z,1090.1
2023-05-12T05:15:56.365Z,1101.3
2023-05-12T05:17:40.023Z,1115.6
2023-05-12T05:19:30.725Z,1110.2
2023-05-12T05:21:07.527Z,1097.6
2023-05-12T05:22:51.200Z,1094
2023-05-12T05:24:34.843Z,1090.8
2023-05-12T05:28:02.309Z,1081.8
2023-05-12T05:29:45.996Z,1078.7
2023-05-12T05:31:29.701Z,1078.6
2023-05-12T05:33:13.467Z,1077.1
2023-05-12T05:36:40.740Z,1068.9
2023-05-12T05:38:24.497Z,1065.6
2023-05-12T05:40:08.218Z,1066.7
2023-05-12T05:43:35.677Z,1068
2023-05-12T05:45:19.249Z,1067.7
2023-05-12T05:47:10.030Z,1066.1
2023-05-12T05:48:46.716Z,1068.8
2023-05-12T05:50:30.485Z,1069
2023-05-12T05:52:14.074Z,1065.5
2023-05-12T05:53:57.773Z,1059.5
2023-05-12T05:55:41.466Z,1059.3
2023-05-12T05:57:25.167Z,1058.6
2023-05-12T05:59:08.949Z,1061.2
2023-05-12T06:00:52.762Z,1057.9
2023-05-12T06:02:36.289Z,1055.2
2023-05-12T06:04:20.105Z,1054.6
2023-05-12T06:06:03.711Z,1053.8
2023-05-12T06:07:47.432Z,1053.1
2023-05-12T06:11:14.872Z,1052.6
2023-05-12T06:12:58.477Z,1056.3
2023-05-12T06:18:09.658Z,1055.7
2023-05-12T06:19:53.277Z,1049.1
2023-05-12T06:21:37.037Z,1047.5
2023-05-12T06:23:20.703Z,1044.3
2023-05-12T06:25:04.448Z,1041.9
2023-05-12T06:26:48.099Z,1041.6
2023-05-12T06:28:31.801Z,1038.8
2023-05-12T06:30:15.492Z,1041.6
2023-05-12T06:32:06.225Z,1045.1
2023-05-12T06:33:42.903Z,1043.2
2023-05-12T06:35:33.639Z,1037.6
2023-05-12T06:37:10.309Z,1039.3
2023-05-12T06:40:37.728Z,1040.9
2023-05-12T06:42:21.423Z,1042.9
2023-05-12T06:44:12.112Z,1039.3
2023-05-12T06:45:48.813Z,1039
2023-05-12T06:47:32.561Z,1039.5
2023-05-12T06:49:16.272Z,1037.4
2023-05-12T06:50:59.924Z,1036.8
2023-05-12T06:52:43.672Z,1037.3
2023-05-12T06:54:27.321Z,1124.2
2023-05-12T06:56:11.037Z,1166.8
2023-05-12T06:58:01.798Z,1148.7
2023-05-12T06:59:38.571Z,1141.3
2023-05-12T07:01:22.225Z,1134.8
2023-05-12T07:03:05.879Z,1125.1
2023-05-12T07:04:49.651Z,1124.9
2023-05-12T07:10:00.968Z,1096.8
2023-05-12T07:11:44.335Z,1093
2023-05-12T07:13:28.059Z,1092.1
2023-05-12T07:16:55.494Z,1087.9
2023-05-12T07:18:39.269Z,1081.5
2023-05-12T07:23:50.263Z,1114.4
2023-05-12T07:25:34.090Z,1128.4
2023-05-12T07:27:17.669Z,1128.7
2023-05-12T07:29:01.371Z,1118.9
2023-05-12T07:30:45.053Z,1108.8
2023-05-12T07:32:28.945Z,1118
2023-05-12T07:34:12.452Z,1132.6
2023-05-12T07:35:56.180Z,1111
2023-05-12T07:37:39.872Z,1102
2023-05-12T07:39:23.619Z,1100.1
2023-05-12T07:41:07.353Z,1101.8
2023-05-12T07:42:58.082Z,1107
2023-05-12T07:44:34.718Z,1116
2023-05-12T07:46:25.368Z,1162.7
2023-05-12T07:51:29.474Z,1187.2
2023-05-12T07:53:13.180Z,1187.1
2023-05-12T07:55:03.886Z,1188
2023-05-12T07:56:47.576Z,1188
2023-05-12T07:58:24.285Z,1189.4
2023-05-12T08:00:07.992Z,1193.9
2023-05-12T08:01:51.694Z,1198.7
2023-05-12T08:03:35.389Z,1205.7
2023-05-12T08:05:19.100Z,1204.4
2023-05-12T08:07:02.795Z,956.4
2023-05-12T08:08:46.497Z,814
2023-05-12T08:10:30.191Z,1004.8
2023-05-12T08:12:13.894Z,1040.7
2023-05-12T08:13:57.607Z,1058.6
2023-05-12T08:15:41.292Z,1063.9
2023-05-12T08:17:25.002Z,1066.3
2023-05-12T08:20:52.400Z,1065
2023-05-12T08:22:36.239Z,1064.6
2023-05-12T08:24:19.800Z,1062.9
2023-05-12T08:29:30.987Z,1063.9
2023-05-12T08:31:14.615Z,1064.3
2023-05-12T08:34:42.017Z,1065
2023-05-12T08:36:25.729Z,1065.1
2023-05-12T08:38:09.430Z,1066.2
2023-05-12T08:39:53.120Z,1071.3
2023-05-12T08:41:36.828Z,1094.7
2023-05-12T08:43:27.516Z,1103.9
2023-05-12T08:45:04.229Z,1117.1
2023-05-12T08:46:54.963Z,1124.1
2023-05-12T08:48:31.619Z,1120.6
2023-05-12T08:50:15.331Z,1136.6
2023-05-12T08:51:59.035Z,1141.1
2023-05-12T08:53:42.738Z,1145
2023-05-12T08:57:10.148Z,1160
2023-05-12T08:58:53.871Z,1165.2
2023-05-12T09:00:37.555Z,1164.2
2023-05-12T09:02:21.236Z,1160.8
2023-05-12T09:04:05.056Z,1159.2
2023-05-12T09:05:48.653Z,1156.1
2023-05-12T09:07:32.519Z,1066.5
2023-05-12T09:09:16.094Z,782.3
2023-05-12T09:10:59.760Z,673.4
2023-05-12T09:12:43.458Z,559
2023-05-12T09:14:27.205Z,539.9
2023-05-12T09:17:54.610Z,494.2
2023-05-12T09:19:45.261Z,482.5
2023-05-12T09:21:21.980Z,468.6
2023-05-12T09:23:05.673Z,459.8
2023-05-12T09:24:56.411Z,452
2023-05-12T09:26:33.060Z,463.9
2023-05-12T09:28:16.820Z,619.8
2023-05-12T09:30:00.474Z,733.1
2023-05-12T09:31:44.182Z,805.2
2023-05-12T09:35:11.575Z,811.7
2023-05-12T09:38:38.982Z,784.4
2023-05-12T09:40:22.675Z,775.5
2023-05-12T09:42:06.478Z,772
2023-05-12T09:43:50.106Z,768.2
2023-05-12T09:49:01.219Z,770.8
2023-05-12T09:50:44.886Z,772
2023-05-12T09:52:28.654Z,772.7
2023-05-12T09:54:12.319Z,774.7
2023-05-12T09:55:55.988Z,774.9
2023-05-12T09:59:30.441Z,774.5
2023-05-12T10:01:07.157Z,778.6
2023-05-12T10:02:50.786Z,782.8
2023-05-12T10:06:18.288Z,786.3
2023-05-12T10:13:13.028Z,775.9
2023-05-12T10:15:10.822Z,777
2023-05-12T10:16:54.419Z,778.1
2023-05-12T10:18:24.109Z,777.8
2023-05-12T10:20:14.810Z,778.5
2023-05-12T10:22:05.559Z,781
2023-05-12T10:23:35.213Z,782.4
2023-05-12T10:25:18.908Z,785.4
2023-05-12T10:27:02.831Z,785.6
2023-05-12T10:28:46.422Z,784.1
2023-05-12T10:30:37.043Z,782.1
2023-05-12T10:32:13.871Z,781.9
2023-05-12T10:35:41.226Z,777
2023-05-12T10:37:24.830Z,775.1
2023-05-12T10:42:35.923Z,772.8
2023-05-12T10:44:26.634Z,773.4
2023-05-12T10:46:03.448Z,772.1
2023-05-12T10:47:47.036Z,773.4
2023-05-12T10:49:30.787Z,774.7
2023-05-12T10:51:21.442Z,774
2023-05-12T10:54:48.962Z,775.8
2023-05-12T10:56:32.538Z,775.3
2023-05-12T10:59:53.025Z,771.5
2023-05-12T11:01:43.645Z,779.6
2023-05-12T11:03:20.396Z,799.8
2023-05-12T11:05:04.115Z,800.8
2023-05-12T11:08:31.450Z,788.1
2023-05-12T11:10:22.185Z,786.5
2023-05-12T11:12:12.861Z,788.7
2023-05-12T11:13:42.558Z,789.2
2023-05-12T11:15:26.255Z,788.6
2023-05-12T11:17:16.978Z,786.8
2023-05-12T11:18:53.652Z,781.9
2023-05-12T11:22:28.067Z,777.2
2023-05-12T11:24:11.907Z,777.3
2023-05-12T11:27:32.200Z,778.9
2023-05-12T11:29:15.861Z,780.7
2023-05-12T11:30:59.592Z,781.7
2023-05-12T11:32:43.288Z,779.5
2023-05-12T11:34:26.991Z,778.2
2023-05-12T11:36:10.681Z,777.6
2023-05-12T11:38:01.392Z,779.3
2023-05-12T11:39:45.099Z,777.3
2023-05-12T11:41:21.781Z,779.4
2023-05-12T11:43:05.531Z,776.4
2023-05-12T11:46:32.881Z,777.7
2023-05-12T11:48:16.595Z,779.5
2023-05-12T11:50:00.357Z,777.4
2023-05-12T11:51:44.212Z,777.7
2023-05-12T11:53:27.832Z,780.7
2023-05-12T11:55:11.421Z,780.4
2023-05-12T11:56:55.160Z,782.2
2023-05-12T11:58:52.813Z,781.8
2023-05-12T12:00:29.501Z,780.3
2023-05-12T12:02:13.208Z,780.2
2023-05-12T12:03:57.090Z,781.7
2023-05-12T12:05:33.603Z,782.7
2023-05-12T12:07:17.373Z,781.3
2023-05-12T12:09:08.012Z,779.9
2023-05-12T12:10:51.713Z,777.5
2023-05-12T12:12:28.428Z,780.7
2023-05-12T12:14:19.109Z,780.4
2023-05-12T12:15:55.808Z,780.4
2023-05-12T12:17:39.525Z,782.7
2023-05-12T12:19:23.216Z,784.2
2023-05-12T12:21:13.965Z,792.8
2023-05-12T12:22:50.647Z,805
2023-05-12T12:24:34.341Z,813.1
2023-05-12T12:26:18.069Z,812.8
2023-05-12T12:28:01.744Z,813.5
2023-05-12T12:29:45.440Z,815.8
2023-05-12T12:31:29.228Z,815.3
2023-05-12T12:33:12.843Z,816.3
2023-05-12T12:34:56.548Z,817.5
2023-05-12T12:36:40.239Z,819.9
2023-05-12T12:38:23.938Z,823.9
2023-05-12T12:40:07.667Z,823.3
2023-05-12T12:41:51.336Z,814.5
2023-05-12T12:43:35.092Z,812.4
2023-05-12T12:45:18.743Z,811.9
2023-05-12T12:47:02.479Z,810.5
2023-05-12T12:48:46.177Z,808.7
2023-05-12T12:50:29.844Z,810.6
2023-05-12T12:52:13.561Z,810
2023-05-12T12:53:57.253Z,813.9
2023-05-12T12:55:40.970Z,818.3
2023-05-12T12:57:24.668Z,818.8
2023-05-12T12:59:08.399Z,815.9
2023-05-12T13:00:52.064Z,810.4
2023-05-12T13:02:35.808Z,806.1
2023-05-12T13:04:19.511Z,804.9
2023-05-12T13:06:03.171Z,806.4
2023-05-12T13:07:46.873Z,802.4
2023-05-12T13:12:57.977Z,801
2023-05-12T13:14:41.677Z,802.9
2023-05-12T13:16:25.384Z,801.4
2023-05-12T13:18:09.081Z,800.8
2023-05-12T13:19:52.785Z,797.6
2023-05-12T13:21:36.489Z,795.2
2023-05-12T13:23:20.205Z,795.2
2023-05-12T13:26:47.647Z,800
2023-05-12T13:28:31.304Z,795.5
2023-05-12T13:31:58.697Z,795.6
2023-05-12T13:33:42.448Z,794.5
2023-05-12T13:35:26.105Z,793.2
2023-05-12T13:37:16.806Z,796.6
2023-05-12T13:38:53.520Z,795.5
2023-05-12T13:40:37.219Z,806.5
2023-05-12T13:44:04.650Z,800.4
2023-05-12T13:45:48.324Z,797.6
2023-05-12T13:47:32.048Z,793.2
2023-05-12T13:49:15.718Z,792.4
2023-05-12T13:50:59.427Z,794.4
2023-05-12T13:52:43.129Z,796.7
2023-05-12T13:54:26.866Z,796.1
2023-05-12T13:56:10.538Z,795.1
2023-05-12T13:57:54.243Z,795.4
2023-05-12T13:59:38.034Z,797.8
2023-05-12T14:01:21.634Z,799.3
2023-05-12T14:03:05.390Z,799.4
2023-05-12T14:04:49.029Z,799.1
2023-05-12T14:06:32.736Z,805.8
2023-05-12T14:08:16.438Z,813.6
2023-05-12T14:10:00.144Z,820
2023-05-12T14:11:43.829Z,824.1
2023-05-12T14:15:11.235Z,822.3
2023-05-12T14:16:54.940Z,824.7
2023-05-12T14:18:38.646Z,822
2023-05-12T14:20:22.346Z,823.6
2023-05-12T14:22:06.035Z,827.5
2023-05-12T14:23:49.747Z,829.5
2023-05-12T14:25:33.448Z,832.4
2023-05-12T14:27:17.142Z,833
2023-05-12T14:29:00.914Z,834.6
2023-05-12T14:30:44.652Z,831.5
2023-05-12T14:32:28.270Z,832
2023-05-12T14:34:12.034Z,831.1
2023-05-12T14:37:39.471Z,831.5
2023-05-12T14:39:23.075Z,831.6
2023-05-12T14:41:06.779Z,826.4
2023-05-12T14:42:50.510Z,824
2023-05-12T14:46:17.925Z,825.1
2023-05-12T14:48:01.615Z,827.1
2023-05-12T14:49:45.268Z,825.3
2023-05-12T14:51:28.969Z,826.2
2023-05-12T14:53:12.791Z,826.4
2023-05-12T14:54:56.496Z,826.6
2023-05-12T14:56:40.163Z,826.5
2023-05-12T14:58:23.871Z,824.7
2023-05-12T15:00:07.487Z,820.8
2023-05-12T15:01:51.254Z,818
2023-05-12T15:03:34.963Z,818.7
2023-05-12T15:07:02.303Z,816.3
2023-05-12T15:10:29.854Z,818.7
2023-05-12T15:12:13.607Z,821.4
2023-05-12T15:13:57.219Z,825.7
2023-05-12T15:17:24.715Z,823.7
2023-05-12T15:19:08.388Z,823.2
2023-05-12T15:20:51.979Z,820.3
2023-05-12T15:22:42.767Z,820.1
2023-05-12T15:24:26.510Z,819.9
2023-05-12T15:26:03.171Z,820.7
2023-05-12T15:27:46.918Z,824.2
2023-05-12T15:29:37.600Z,830
2023-05-12T15:31:21.201Z,828.4
2023-05-12T15:32:58.043Z,828.6
2023-05-12T15:34:41.613Z,825.5
2023-05-12T15:36:25.464Z,826.2
2023-05-12T15:38:09.143Z,828
2023-05-12T15:41:36.477Z,832.7
2023-05-12T15:45:03.721Z,845.9
2023-05-12T15:46:47.703Z,844.8
2023-05-12T15:48:31.109Z,847.3
2023-05-12T15:50:15.029Z,851.3
2023-05-12T15:53:42.376Z,854.6
2023-05-12T15:55:25.934Z,855.4
2023-05-12T15:58:53.333Z,852.4
2023-05-12T16:00:37.145Z,850.4
2023-05-12T16:02:20.911Z,850.8
2023-05-12T16:04:04.617Z,848.5
2023-05-12T16:05:55.306Z,851
2023-05-12T16:07:31.848Z,853.2
2023-05-12T16:09:15.681Z,850.9
2023-05-12T16:10:59.240Z,851.3
2023-05-12T16:17:54.079Z,846.4
2023-05-12T16:21:21.448Z,844.8
2023-05-12T16:24:48.849Z,873.5
2023-05-12T16:28:16.266Z,908.1
2023-05-12T16:29:59.992Z,910.2
2023-05-12T16:31:43.664Z,906.8
2023-05-12T16:33:27.383Z,907.3
2023-05-12T16:35:11.058Z,905.3
2023-05-12T16:38:38.457Z,894.5
2023-05-12T16:40:36.180Z,891.8
2023-05-12T16:42:12.972Z,892.2
2023-05-12T16:44:03.582Z,891
2023-05-12T16:47:16.988Z,886.1
2023-05-12T16:49:00.782Z,884.4
2023-05-12T16:50:51.379Z,885.3
2023-05-12T16:52:35.131Z,887.9
2023-05-12T16:54:11.792Z,889.3
2023-05-12T16:55:55.639Z,889.6
2023-05-12T16:57:39.256Z,890.5
2023-05-12T17:01:06.586Z,887.6
2023-05-12T17:02:50.313Z,886.7
2023-05-12T17:04:40.993Z,885.3
2023-05-12T17:06:17.754Z,886.5
2023-05-12T17:08:01.392Z,888.8
2023-05-12T17:09:45.194Z,889.6
2023-05-12T17:11:28.875Z,895.1
2023-05-12T17:14:56.237Z,897.9
2023-05-12T17:16:40.067Z,894.3
2023-05-12T17:18:23.646Z,894.1
2023-05-12T17:20:14.407Z,893.6
2023-05-12T17:21:58.068Z,890.6
2023-05-12T17:23:34.889Z,893.7
2023-05-12T17:25:25.406Z,889.6
2023-05-12T17:28:45.818Z,887.1
2023-05-12T17:30:29.557Z,883.4
2023-05-12T17:32:13.223Z,885.7
2023-05-12T17:33:56.963Z,884.3
2023-05-12T17:35:54.744Z,886.6
2023-05-12T17:37:31.332Z,888.7
2023-05-12T17:39:08.165Z,888
2023-05-12T17:41:05.745Z,885.2
2023-05-12T17:44:19.249Z,884.3
2023-05-12T17:46:16.860Z,884.4
2023-05-12T17:48:00.593Z,884.4
2023-05-12T17:49:30.308Z,881.1
2023-05-12T17:51:13.944Z,875.4
2023-05-12T17:52:57.823Z,873.4
2023-05-12T17:54:55.389Z,871.8
2023-05-12T17:58:08.837Z,872.6
2023-05-12T17:59:59.580Z,872.9
2023-05-12T18:01:50.426Z,872.2
2023-05-12T18:05:10.696Z,872.4
2023-05-12T18:06:54.427Z,870.8
2023-05-12T18:08:38.123Z,873.7
2023-05-12T18:10:21.658Z,871.4
2023-05-12T18:11:58.368Z,874.8
2023-05-12T18:13:42.074Z,872.6
2023-05-12T18:15:25.771Z,871.2
2023-05-12T18:17:16.612Z,869.3
2023-05-12T18:18:53.254Z,869.4
2023-05-12T18:20:37.040Z,874.8
2023-05-12T18:22:27.749Z,874
2023-05-12T18:24:04.468Z,870.4
2023-05-12T18:25:48.078Z,869.6
2023-05-12T18:27:31.884Z,869.8
2023-05-12T18:29:22.386Z,872.2
2023-05-12T18:30:59.201Z,873
2023-05-12T18:32:42.865Z,869
2023-05-12T18:34:26.502Z,869.6
2023-05-12T18:37:54.083Z,866.3
2023-05-12T18:41:21.414Z,864.6
2023-05-12T18:43:05.059Z,866.1
2023-05-12T18:44:48.706Z,866.7
2023-05-12T18:46:32.556Z,863.2
2023-05-12T18:48:16.107Z,865.8
2023-05-12T18:49:59.809Z,868.9
2023-05-12T18:51:43.597Z,867.1
2023-05-12T18:53:27.303Z,867.9
2023-05-12T18:55:10.988Z,868.9
2023-05-12T18:56:54.695Z,869
2023-05-12T18:58:38.401Z,870.1
2023-05-12T19:00:22.019Z,867.6
2023-05-12T19:02:05.723Z,869.1
2023-05-12T19:03:49.491Z,873.2
2023-05-12T19:05:33.121Z,871.3
2023-05-12T19:07:16.899Z,872.6
2023-05-12T19:09:00.654Z,873
2023-05-12T19:10:44.269Z,872
2023-05-12T19:12:27.935Z,870
2023-05-12T19:14:11.676Z,868.2
2023-05-12T19:15:55.429Z,869.4
2023-05-12T19:17:39.087Z,870.3
2023-05-12T19:19:22.793Z,871.4
2023-05-12T19:21:06.442Z,869.2
2023-05-12T19:24:33.845Z,862.6
2023-05-12T19:26:17.577Z,862.4
2023-05-12T19:29:44.961Z,862.6
2023-05-12T19:33:12.371Z,862.1
2023-05-12T19:34:56.186Z,862.2
2023-05-12T19:36:39.773Z,856.1
2023-05-12T19:38:30.493Z,855.3
2023-05-12T19:40:07.206Z,854.9
2023-05-12T19:41:50.846Z,850.6
2023-05-12T19:43:34.557Z,850.5
2023-05-12T19:47:01.965Z,855.6
2023-05-12T19:48:45.682Z,853.4
2023-05-12T19:50:36.407Z,850.5
2023-05-12T19:52:13.060Z,848.8
2023-05-12T19:53:56.771Z,859.6
2023-05-12T19:55:47.461Z,870.9
2023-05-12T19:57:24.242Z,870.5
2023-05-12T19:59:07.912Z,881.2
2023-05-12T20:00:58.597Z,906.5
2023-05-12T20:02:35.286Z,990.8
2023-05-12T20:04:19.004Z,1015
2023-05-12T20:06:02.752Z,1025.7
2023-05-12T20:07:46.554Z,1030.9
2023-05-12T20:09:30.141Z,1035.1
2023-05-12T20:11:13.857Z,1039.1
2023-05-12T20:12:57.486Z,1040.3
2023-05-12T20:14:41.185Z,1042
2023-05-12T20:16:24.911Z,1044.3
2023-05-12T20:18:08.672Z,1047.5
2023-05-12T20:19:52.354Z,1054
2023-05-12T20:21:36.049Z,1060.8
2023-05-12T20:23:19.715Z,1057.7
2023-05-12T20:25:03.410Z,1054.8
2023-05-12T20:26:47.185Z,1061.7
2023-05-12T20:30:14.543Z,1074.1
2023-05-12T20:31:58.227Z,1078.7
2023-05-12T20:33:41.958Z,1080.6
2023-05-12T20:35:25.663Z,1083.5
2023-05-12T20:37:09.326Z,1089.1
2023-05-12T20:38:53.075Z,1091
2023-05-12T20:40:36.727Z,1089.4
2023-05-12T20:42:20.537Z,1092.5
2023-05-12T20:44:04.115Z,1087.9
2023-05-12T20:45:47.812Z,1084.4
2023-05-12T20:47:31.566Z,1078.9
2023-05-12T20:49:15.309Z,1081.3
2023-05-12T20:50:58.925Z,1082.4
2023-05-12T20:52:42.629Z,1079.5
2023-05-12T20:54:26.322Z,1075
2023-05-12T20:56:10.061Z,1078.9
2023-05-12T20:57:53.826Z,1075.8
2023-05-12T20:59:37.431Z,1080.2
2023-05-12T21:01:21.131Z,1082.3
2023-05-12T21:03:04.913Z,1085.9
2023-05-12T21:06:32.323Z,1089.8
2023-05-12T21:08:15.952Z,1089.3
2023-05-12T21:09:59.675Z,1095.5
2023-05-12T21:11:43.368Z,1103.1
2023-05-12T21:13:27.050Z,1108.6
2023-05-12T21:16:54.556Z,1117.7
2023-05-12T21:18:38.154Z,1121.6
2023-05-12T21:20:21.902Z,1122.8
2023-05-12T21:22:05.576Z,1120.3
2023-05-12T21:23:49.288Z,1119.5
2023-05-12T21:25:32.969Z,1114.4
2023-05-12T21:27:16.665Z,1101.3
2023-05-12T21:29:00.391Z,1089.4
2023-05-12T21:30:44.065Z,1092.1
2023-05-12T21:34:11.541Z,1092.3
2023-05-12T21:35:55.185Z,1088.6
2023-05-12T21:37:45.887Z,1082.9
2023-05-12T21:39:22.584Z,1081.6
2023-05-12T21:41:13.278Z,1085.5
2023-05-12T21:42:49.980Z,1083.9
2023-05-12T21:44:40.680Z,1083.3
2023-05-12T21:46:17.387Z,1084.9
2023-05-12T21:48:01.105Z,1087.2
2023-05-12T21:49:44.796Z,1097.4
2023-05-12T21:51:28.489Z,1178.8
2023-05-12T21:53:12.215Z,1211.7
2023-05-12T21:56:39.692Z,1196.5
2023-05-12T21:58:23.318Z,1190.5
2023-05-12T22:00:07.025Z,1187.2
2023-05-12T22:01:50.724Z,1189.8
2023-05-12T22:05:18.117Z,1205.7
2023-05-12T22:07:01.818Z,1206.1
2023-05-12T22:10:29.223Z,1185.1
2023-05-12T22:12:12.925Z,1173.5
2023-05-12T22:14:03.616Z,1169.7
2023-05-12T22:15:40.359Z,1161.5
2023-05-12T22:17:24.035Z,1152.3
2023-05-12T22:19:07.801Z,1146.2
2023-05-12T22:20:51.421Z,1141.3
2023-05-12T22:22:35.136Z,1138.2
2023-05-12T22:24:18.905Z,1140.4
2023-05-12T22:26:02.566Z,1140.7
2023-05-12T22:27:46.244Z,1138.6
2023-05-12T22:29:30.018Z,1137.4
2023-05-12T22:31:13.723Z,1134.9
2023-05-12T22:32:57.344Z,1136.3
2023-05-12T22:34:41.043Z,1136.9
2023-05-12T22:36:24.748Z,1135.9
2023-05-12T22:38:08.441Z,1143.5
2023-05-12T22:41:35.857Z,1138.4
2023-05-12T22:43:19.666Z,1141.3
2023-05-12T22:45:03.254Z,1138.6
2023-05-12T22:46:47.052Z,1133.4
2023-05-12T22:48:30.656Z,1131.9
2023-05-12T22:50:14.378Z,1131.6
2023-05-12T22:51:58.061Z,1132.1
2023-05-12T22:53:41.785Z,1132.6
2023-05-12T22:55:25.466Z,1133.9
2023-05-12T22:57:09.209Z,1132.3
2023-05-12T23:00:36.651Z,1206.7
2023-05-12T23:04:04.015Z,1180.2
2023-05-12T23:05:47.701Z,1173.6
2023-05-12T23:07:31.379Z,1166.8
2023-05-12T23:09:15.153Z,1159.5
2023-05-12T23:10:58.938Z,1159.4
2023-05-12T23:12:42.493Z,1157.9
2023-05-12T23:14:26.202Z,1158.5
2023-05-12T23:17:53.588Z,1153.6
2023-05-12T23:19:37.292Z,1151
2023-05-12T23:21:21.130Z,1150.3
2023-05-12T23:23:04.697Z,1150.9
2023-05-12T23:24:48.442Z,1154.7
2023-05-12T23:26:32.152Z,1151.7
2023-05-12T23:28:15.898Z,1147.5
2023-05-12T23:29:59.498Z,1148.8
2023-05-12T23:31:43.265Z,1148.7
2023-05-12T23:33:26.979Z,1148.1
2023-05-12T23:35:10.685Z,1148.5
2023-05-12T23:36:54.350Z,1149.1
2023-05-12T23:38:38.169Z,1150.5
2023-05-12T23:40:21.706Z,1146.4
2023-05-12T23:42:05.491Z,1144.3
2023-05-12T23:43:49.128Z,1139.7
2023-05-12T23:45:32.819Z,1138.3
2023-05-12T23:49:00.098Z,1140.7
2023-05-12T23:50:43.623Z,1139.9
2023-05-12T23:52:27.487Z,1136.5
2023-05-12T23:54:11.032Z,1136.5
2023-05-12T23:55:54.718Z,1137
2023-05-12T23:57:38.476Z,1143.4
2023-05-12T23:59:22.178Z,1145.2
